Seattle, Washington
Traffic Map
Current Weather Conditions
Seattle, Washington
Broken Clouds
Broken Clouds
19°
Feels Like: 19°
Wind Chill: 19° Ceiling: 22000
Heat Index: 19° Visibility: 10mi
Dew Point: 15° Wind: 6mph
Humidity: 78% Direction: 170° (S)
Pressure: 29.97in Gusts: 0mph
Raw Report DataKBFI 010253Z 17005KT 10SM FEW020 SCT055 BKN220 19/15 A2997 RMK AO2 SLP147 T01890150 55001 $
Traffic Incident Summary
Active as of:
Severity:
Category:
InformationThere was an issue retrieving the traffic information for this location. Please try a different location or try again shortly.
Advertisements
Track Severe Weather on mobile